createdAt,value
2023-01-12T00:01:27.172Z,6.31
2023-01-12T00:03:54.503Z,6.30
2023-01-12T00:06:22.115Z,6.45
2023-01-12T00:08:49.899Z,6.44
2023-01-12T00:11:17.852Z,6.46
2023-01-12T00:13:45.420Z,6.57
2023-01-12T00:16:39.579Z,6.57
2023-01-12T00:19:33.551Z,6.64
2023-01-12T00:22:14.705Z,6.45
2023-01-12T00:24:44.255Z,6.46
2023-01-12T00:27:14.651Z,6.45
2023-01-12T00:29:41.455Z,6.56
2023-01-12T00:32:14.435Z,6.54
2023-01-12T00:34:41.760Z,6.48
2023-01-12T00:37:09.128Z,6.51
2023-01-12T00:39:40.400Z,6.79
2023-01-12T00:42:26.514Z,6.74
2023-01-12T00:45:11.971Z,6.77
2023-01-12T00:47:38.801Z,6.78
2023-01-12T00:50:05.862Z,6.80
2023-01-12T00:52:32.455Z,6.78
2023-01-12T00:54:59.952Z,6.77
2023-01-12T00:57:28.464Z,6.77
2023-01-12T00:59:58.377Z,6.78
2023-01-12T01:02:25.682Z,6.82
2023-01-12T01:04:52.419Z,6.73
2023-01-12T01:07:21.804Z,6.68
2023-01-12T01:09:49.209Z,6.76
2023-01-12T01:12:17.765Z,6.73
2023-01-12T01:14:45.005Z,6.82
2023-01-12T01:17:11.722Z,6.77
2023-01-12T01:19:38.497Z,6.76
2023-01-12T01:22:05.258Z,6.76
2023-01-12T01:24:31.928Z,6.73
2023-01-12T01:26:58.643Z,6.88
2023-01-12T01:29:25.248Z,6.73
2023-01-12T01:31:54.985Z,6.65
2023-01-12T01:34:21.623Z,6.76
2023-01-12T01:36:48.190Z,6.63
2023-01-12T01:39:14.936Z,6.89
2023-01-12T01:41:43.677Z,6.61
2023-01-12T01:44:29.290Z,6.85
2023-01-12T01:47:00.097Z,6.63
2023-01-12T01:49:29.966Z,6.49
2023-01-12T01:52:06.300Z,6.53
2023-01-12T01:54:38.895Z,6.59
2023-01-12T01:57:06.476Z,6.55
2023-01-12T01:59:34.937Z,6.50
2023-01-12T02:02:02.761Z,6.53
2023-01-12T02:04:30.311Z,6.46
2023-01-12T02:06:57.782Z,6.45
2023-01-12T02:09:28.321Z,6.45
2023-01-12T02:12:13.850Z,6.54
2023-01-12T02:15:00.001Z,6.52
2023-01-12T02:18:03.847Z,6.47
2023-01-12T02:20:48.419Z,6.52
2023-01-12T02:23:30.396Z,6.51
2023-01-12T02:26:08.854Z,6.57
2023-01-12T02:28:46.611Z,6.62
2023-01-12T02:31:23.014Z,6.52
2023-01-12T02:33:54.627Z,6.49
2023-01-12T02:36:45.853Z,6.52
2023-01-12T02:39:24.029Z,6.52
2023-01-12T02:42:25.941Z,6.42
2023-01-12T02:45:00.625Z,6.40
2023-01-12T02:47:48.220Z,6.33
2023-01-12T02:50:20.444Z,6.33
2023-01-12T02:52:48.799Z,6.25
2023-01-12T02:55:16.469Z,6.36
2023-01-12T02:57:43.364Z,6.36
2023-01-12T03:00:10.616Z,6.34
2023-01-12T03:02:38.200Z,6.49
2023-01-12T03:05:06.013Z,6.58
2023-01-12T03:07:33.116Z,6.44
2023-01-12T03:10:07.347Z,6.47
2023-01-12T03:12:35.264Z,6.51
2023-01-12T03:15:04.985Z,6.43
2023-01-12T03:17:50.659Z,6.48
2023-01-12T03:20:24.299Z,6.58
2023-01-12T03:22:54.803Z,6.60
2023-01-12T03:25:22.215Z,6.64
2023-01-12T03:27:52.015Z,6.70
2023-01-12T03:30:27.065Z,6.53
2023-01-12T03:32:53.915Z,6.52
2023-01-12T03:35:25.985Z,6.48
2023-01-12T03:38:00.071Z,6.56
2023-01-12T03:40:28.167Z,6.60
2023-01-12T03:43:04.179Z,6.59
2023-01-12T03:45:39.945Z,6.77
2023-01-12T03:48:07.679Z,6.76
2023-01-12T03:50:40.250Z,6.71
2023-01-12T03:53:07.812Z,6.71
2023-01-12T03:55:35.448Z,6.73
2023-01-12T03:58:02.345Z,6.64
2023-01-12T04:00:29.493Z,6.66
2023-01-12T04:03:24.471Z,6.57
2023-01-12T04:05:51.442Z,6.66
2023-01-12T04:08:18.680Z,6.60
2023-01-12T04:10:45.466Z,6.62
2023-01-12T04:13:12.115Z,6.65
2023-01-12T04:15:42.544Z,6.66
2023-01-12T04:18:12.799Z,6.64
2023-01-12T04:20:39.625Z,6.57
2023-01-12T04:23:09.766Z,6.69
2023-01-12T04:25:36.824Z,6.64
2023-01-12T04:28:04.459Z,6.69
2023-01-12T04:30:33.215Z,6.66
2023-01-12T04:33:00.681Z,6.67
2023-01-12T04:35:27.737Z,6.73
2023-01-12T04:37:57.621Z,6.75
2023-01-12T04:40:25.124Z,6.68
2023-01-12T04:43:08.531Z,6.81
2023-01-12T04:45:38.227Z,6.67
2023-01-12T04:48:06.986Z,6.65
2023-01-12T04:50:33.924Z,6.70
2023-01-12T04:53:08.137Z,6.83
2023-01-12T04:55:39.398Z,6.73
2023-01-12T04:58:06.140Z,6.72
2023-01-12T05:00:33.110Z,6.69
2023-01-12T05:03:02.444Z,6.75
2023-01-12T05:05:33.470Z,6.78
2023-01-12T05:08:21.188Z,6.78
2023-01-12T05:10:58.323Z,6.75
2023-01-12T05:13:27.337Z,6.73
2023-01-12T05:15:54.045Z,6.66
2023-01-12T05:18:20.729Z,6.72
2023-01-12T05:20:47.331Z,6.74
2023-01-12T05:23:14.036Z,6.87
2023-01-12T05:25:40.636Z,6.82
2023-01-12T05:28:07.305Z,6.82
2023-01-12T05:30:34.053Z,6.81
2023-01-12T05:33:00.867Z,6.73
2023-01-12T05:35:27.551Z,6.87
2023-01-12T05:37:57.387Z,6.79
2023-01-12T05:40:24.566Z,6.73
2023-01-12T05:43:12.733Z,6.86
2023-01-12T05:45:39.394Z,6.84
2023-01-12T05:48:06.561Z,6.66
2023-01-12T05:50:33.313Z,6.77
2023-01-12T05:53:12.196Z,6.75
2023-01-12T05:55:38.977Z,6.68
2023-01-12T05:58:05.885Z,6.74
2023-01-12T06:00:32.802Z,6.74
2023-01-12T06:02:59.426Z,6.68
2023-01-12T06:05:26.101Z,6.73
2023-01-12T06:07:52.851Z,6.77
2023-01-12T06:10:19.769Z,6.70
2023-01-12T06:13:08.590Z,6.65
2023-01-12T06:15:35.397Z,6.73
2023-01-12T06:18:02.075Z,6.73
2023-01-12T06:20:28.756Z,6.65
2023-01-12T06:22:55.652Z,6.67
2023-01-12T06:25:22.295Z,6.75
2023-01-12T06:27:48.934Z,6.75
2023-01-12T06:30:15.644Z,6.68
2023-01-12T06:32:42.302Z,6.66
2023-01-12T06:35:18.753Z,6.62
2023-01-12T06:37:46.511Z,6.60
2023-01-12T06:40:13.537Z,6.63
2023-01-12T06:42:42.112Z,6.60
2023-01-12T06:45:09.793Z,6.51
2023-01-12T06:47:44.971Z,6.50
2023-01-12T06:50:12.250Z,6.49
2023-01-12T06:52:38.959Z,6.45
2023-01-12T06:55:05.698Z,6.50
2023-01-12T06:57:32.415Z,6.46
2023-01-12T06:59:59.033Z,6.44
2023-01-12T07:02:25.746Z,6.33
2023-01-12T07:04:54.584Z,6.27
2023-01-12T07:07:21.196Z,6.19
2023-01-12T07:09:47.808Z,6.21
2023-01-12T07:12:14.483Z,6.19
2023-01-12T07:14:41.162Z,6.22
2023-01-12T07:17:07.814Z,6.21
2023-01-12T07:19:36.791Z,6.19
2023-01-12T07:22:05.633Z,6.12
2023-01-12T07:24:36.288Z,6.11
2023-01-12T07:27:05.060Z,6.11
2023-01-12T07:29:31.716Z,6.20
2023-01-12T07:31:58.308Z,6.12
2023-01-12T07:34:24.915Z,6.15
2023-01-12T07:36:51.717Z,6.17
2023-01-12T07:39:18.503Z,6.15
2023-01-12T07:42:03.709Z,6.15
2023-01-12T07:44:32.492Z,6.16
2023-01-12T07:47:01.915Z,6.20
2023-01-12T07:49:28.640Z,6.14
2023-01-12T07:51:55.928Z,6.15
2023-01-12T07:54:22.983Z,6.09
2023-01-12T07:56:49.699Z,6.19
2023-01-12T07:59:16.413Z,6.06
2023-01-12T08:01:43.101Z,6.20
2023-01-12T08:04:09.777Z,6.20
2023-01-12T08:06:36.614Z,6.13
2023-01-12T08:09:08.570Z,6.19
2023-01-12T08:11:35.253Z,6.11
2023-01-12T08:14:02.242Z,6.10
2023-01-12T08:16:36.495Z,6.13
2023-01-12T08:19:07.727Z,6.09
2023-01-12T08:21:41.834Z,6.02
2023-01-12T08:24:09.470Z,6.09
2023-01-12T08:26:39.209Z,6.15
2023-01-12T08:29:18.417Z,6.03
2023-01-12T08:31:45.121Z,6.07
2023-01-12T08:34:11.892Z,6.08
2023-01-12T08:36:38.867Z,5.99
2023-01-12T08:39:05.500Z,6.04
2023-01-12T08:41:37.408Z,6.00
2023-01-12T08:44:08.744Z,6.11
2023-01-12T08:46:39.621Z,6.05
2023-01-12T08:49:11.478Z,6.18
2023-01-12T08:51:41.154Z,6.03
2023-01-12T08:54:09.748Z,6.15
2023-01-12T08:56:36.828Z,6.24
2023-01-12T08:59:04.328Z,6.21
2023-01-12T09:01:31.152Z,6.22
2023-01-12T09:03:58.492Z,6.33
2023-01-12T09:06:32.976Z,6.24
2023-01-12T09:09:01.600Z,6.37
2023-01-12T09:11:29.564Z,6.38
2023-01-12T09:13:58.581Z,6.40
2023-01-12T09:16:30.429Z,6.37
2023-01-12T09:18:57.399Z,6.39
2023-01-12T09:21:25.965Z,6.47
2023-01-12T09:23:53.236Z,6.45
2023-01-12T09:26:24.516Z,6.50
2023-01-12T09:28:51.736Z,6.49
2023-01-12T09:31:21.019Z,6.54
2023-01-12T09:33:47.842Z,6.51
2023-01-12T09:36:19.468Z,6.56
2023-01-12T09:38:47.145Z,6.64
2023-01-12T09:41:45.996Z,6.73
2023-01-12T09:44:34.368Z,6.73
2023-01-12T09:47:03.389Z,6.73
2023-01-12T09:49:34.673Z,6.81
2023-01-12T09:52:16.083Z,6.84
2023-01-12T09:54:43.309Z,6.87
2023-01-12T09:57:47.581Z,6.88
2023-01-12T10:00:18.872Z,6.96
2023-01-12T10:02:55.209Z,7.02
2023-01-12T10:05:40.189Z,6.99
2023-01-12T10:08:14.144Z,7.04
2023-01-12T10:10:45.357Z,7.12
2023-01-12T10:13:14.279Z,7.13
2023-01-12T10:15:46.835Z,7.19
2023-01-12T10:18:21.511Z,7.14
2023-01-12T10:20:48.133Z,7.21
2023-01-12T10:23:16.958Z,7.24
2023-01-12T10:25:47.559Z,7.29
2023-01-12T10:28:18.460Z,7.44
2023-01-12T10:30:45.408Z,7.45
2023-01-12T10:33:14.014Z,7.39
2023-01-12T10:36:02.081Z,7.49
2023-01-12T10:38:38.191Z,7.53
2023-01-12T10:41:09.395Z,7.44
2023-01-12T10:43:37.189Z,7.60
2023-01-12T10:46:15.754Z,7.56
2023-01-12T10:48:47.847Z,7.63
2023-01-12T10:51:27.948Z,7.61
2023-01-12T10:54:01.792Z,7.70
2023-01-12T10:56:35.669Z,7.63
2023-01-12T10:59:19.768Z,7.64
2023-01-12T11:01:53.421Z,7.65
2023-01-12T11:04:26.494Z,7.79
2023-01-12T11:07:16.620Z,7.81
2023-01-12T11:09:43.956Z,7.80
2023-01-12T11:12:23.722Z,7.88
2023-01-12T11:15:22.649Z,7.91
2023-01-12T11:17:58.398Z,7.94
2023-01-12T11:20:42.795Z,7.97
2023-01-12T11:23:23.774Z,7.99
2023-01-12T11:25:54.946Z,7.95
2023-01-12T11:28:35.153Z,8.11
2023-01-12T11:31:07.690Z,8.04
2023-01-12T11:33:37.197Z,8.13
2023-01-12T11:36:03.894Z,8.06
2023-01-12T11:38:43.626Z,8.15
2023-01-12T11:41:21.427Z,8.07
2023-01-12T11:44:26.861Z,8.24
2023-01-12T11:47:14.821Z,8.10
2023-01-12T11:49:44.558Z,8.13
2023-01-12T11:52:11.784Z,8.13
2023-01-12T11:54:39.371Z,8.21
2023-01-12T11:57:27.917Z,8.16
2023-01-12T12:00:03.885Z,8.19
2023-01-12T12:03:02.885Z,8.23
2023-01-12T12:05:32.687Z,8.16
2023-01-12T12:08:14.344Z,8.22
2023-01-12T12:10:41.011Z,8.24
2023-01-12T12:13:26.766Z,8.25
2023-01-12T12:16:18.376Z,8.28
2023-01-12T12:19:06.529Z,8.20
2023-01-12T12:21:36.164Z,8.28
2023-01-12T12:24:36.887Z,8.27
2023-01-12T12:27:06.573Z,8.35
2023-01-12T12:29:45.389Z,8.26
2023-01-12T12:32:20.892Z,8.35
2023-01-12T12:35:32.321Z,8.34
2023-01-12T12:38:20.801Z,8.46
2023-01-12T12:41:34.071Z,8.48
2023-01-12T12:44:54.791Z,8.39
2023-01-12T12:47:34.800Z,8.49
2023-01-12T12:50:03.933Z,8.46
2023-01-12T12:52:34.856Z,8.50
2023-01-12T12:55:02.446Z,8.45
2023-01-12T12:57:29.293Z,8.45
2023-01-12T12:59:56.992Z,8.52
2023-01-12T13:02:38.774Z,8.57
2023-01-12T13:05:08.603Z,8.57
2023-01-12T13:07:40.992Z,8.54
2023-01-12T13:10:21.145Z,8.52
2023-01-12T13:12:56.915Z,8.60
2023-01-12T13:15:29.384Z,8.67
2023-01-12T13:17:56.236Z,8.67
2023-01-12T13:20:26.796Z,8.64
2023-01-12T13:22:55.866Z,8.70
2023-01-12T13:25:28.175Z,8.67
2023-01-12T13:27:57.830Z,8.72
2023-01-12T13:30:30.670Z,8.82
2023-01-12T13:33:15.418Z,8.72
2023-01-12T13:35:47.059Z,8.79
2023-01-12T13:38:19.657Z,8.73
2023-01-12T13:40:55.503Z,8.69
2023-01-12T13:43:34.637Z,8.73
2023-01-12T13:46:04.461Z,8.71
2023-01-12T13:48:35.356Z,8.76
2023-01-12T13:51:07.684Z,8.76
2023-01-12T13:53:34.482Z,8.79
2023-01-12T13:56:03.747Z,8.75
2023-01-12T13:59:04.245Z,8.75
2023-01-12T14:01:36.576Z,8.68
2023-01-12T14:04:21.611Z,8.70
2023-01-12T14:07:07.000Z,8.73
2023-01-12T14:10:08.024Z,8.65
2023-01-12T14:12:56.639Z,8.74
2023-01-12T14:16:01.706Z,8.69
2023-01-12T14:18:51.824Z,8.74
2023-01-12T14:21:23.091Z,8.74
2023-01-12T14:23:50.148Z,8.62
2023-01-12T14:26:22.949Z,8.70
2023-01-12T14:28:51.413Z,8.78
2023-01-12T14:31:31.288Z,8.77
2023-01-12T14:33:59.640Z,8.72
2023-01-12T14:36:34.769Z,8.84
2023-01-12T14:39:01.701Z,8.62
2023-01-12T14:41:48.484Z,8.62
2023-01-12T14:44:43.189Z,8.79
2023-01-12T14:47:10.604Z,8.72
2023-01-12T14:49:38.100Z,8.69
2023-01-12T14:52:18.154Z,8.57
2023-01-12T14:54:44.743Z,8.69
2023-01-12T14:57:31.331Z,8.69
2023-01-12T14:59:58.185Z,8.72
2023-01-12T15:02:34.278Z,8.80
2023-01-12T15:05:09.879Z,8.73
2023-01-12T15:07:39.612Z,8.68
2023-01-12T15:10:09.240Z,8.60
2023-01-12T15:12:39.104Z,8.57
2023-01-12T15:15:18.133Z,8.63
2023-01-12T15:18:03.240Z,8.60
2023-01-12T15:20:52.122Z,8.72
2023-01-12T15:23:37.369Z,8.64
2023-01-12T15:26:04.149Z,8.70
2023-01-12T15:28:31.287Z,8.72
2023-01-12T15:30:57.999Z,8.69
2023-01-12T15:33:24.631Z,8.65
2023-01-12T15:35:51.431Z,8.64
2023-01-12T15:38:18.339Z,8.64
2023-01-12T15:40:47.926Z,8.82
2023-01-12T15:43:16.523Z,8.65
2023-01-12T15:45:45.485Z,8.65
2023-01-12T15:48:13.234Z,8.62
2023-01-12T15:50:44.713Z,8.54
2023-01-12T15:53:22.437Z,8.70
2023-01-12T15:55:51.617Z,8.69
2023-01-12T15:58:19.697Z,8.57
2023-01-12T16:00:46.745Z,8.60
2023-01-12T16:03:32.139Z,8.58
2023-01-12T16:06:00.793Z,8.56
2023-01-12T16:08:28.065Z,8.53
2023-01-12T16:11:09.643Z,8.60
2023-01-12T16:13:36.323Z,8.57
2023-01-12T16:16:03.080Z,8.58
2023-01-12T16:18:30.042Z,8.65
2023-01-12T16:21:01.074Z,8.52
2023-01-12T16:23:28.345Z,8.62
2023-01-12T16:25:56.048Z,8.54
2023-01-12T16:28:22.806Z,8.64
2023-01-12T16:30:49.345Z,8.63
2023-01-12T16:33:17.716Z,8.62
2023-01-12T16:35:45.185Z,8.81
2023-01-12T16:38:17.336Z,8.60
2023-01-12T16:40:46.763Z,8.64
2023-01-12T16:43:13.453Z,8.68
2023-01-12T16:45:46.222Z,8.52
2023-01-12T16:48:13.140Z,8.51
2023-01-12T16:50:41.015Z,8.56
2023-01-12T16:53:08.748Z,8.67
2023-01-12T16:55:38.060Z,8.56
2023-01-12T16:58:26.899Z,8.65
2023-01-12T17:00:53.741Z,8.56
2023-01-12T17:03:21.185Z,8.59
2023-01-12T17:05:50.909Z,8.51
2023-01-12T17:08:34.212Z,8.66
2023-01-12T17:11:06.726Z,8.60
2023-01-12T17:13:33.888Z,8.54
2023-01-12T17:16:00.984Z,8.49
2023-01-12T17:18:36.735Z,8.69
2023-01-12T17:21:06.677Z,8.63
2023-01-12T17:23:33.800Z,8.55
2023-01-12T17:26:09.448Z,8.51
2023-01-12T17:28:36.237Z,8.54
2023-01-12T17:31:08.204Z,8.54
2023-01-12T17:33:35.438Z,8.68
2023-01-12T17:36:04.787Z,8.62
2023-01-12T17:38:32.733Z,8.50
2023-01-12T17:40:59.404Z,8.56
2023-01-12T17:43:26.554Z,8.46
2023-01-12T17:45:53.448Z,8.46
2023-01-12T17:48:20.199Z,8.45
2023-01-12T17:50:47.217Z,8.49
2023-01-12T17:53:14.683Z,8.50
2023-01-12T17:55:48.205Z,8.45
2023-01-12T17:58:18.532Z,8.38
2023-01-12T18:00:45.339Z,8.41
2023-01-12T18:03:12.082Z,8.46
2023-01-12T18:05:44.573Z,8.45
2023-01-12T18:08:11.407Z,8.49
2023-01-12T18:10:38.159Z,8.45
2023-01-12T18:13:04.709Z,8.46
2023-01-12T18:15:31.463Z,8.50
2023-01-12T18:17:59.153Z,8.53
2023-01-12T18:20:25.813Z,8.49
2023-01-12T18:22:55.090Z,8.52
2023-01-12T18:25:21.826Z,8.55
2023-01-12T18:27:48.497Z,8.49
2023-01-12T18:30:17.983Z,8.52
2023-01-12T18:32:45.547Z,8.53
2023-01-12T18:35:16.080Z,8.53
2023-01-12T18:37:42.812Z,8.50
2023-01-12T18:40:10.096Z,8.33
2023-01-12T18:42:53.030Z,8.37
2023-01-12T18:45:27.290Z,8.23
2023-01-12T18:48:12.473Z,8.25
2023-01-12T18:50:58.049Z,8.27
2023-01-12T18:53:31.866Z,8.34
2023-01-12T18:55:58.926Z,8.27
2023-01-12T18:58:30.972Z,8.32
2023-01-12T19:01:04.819Z,8.27
2023-01-12T19:03:31.698Z,8.30
2023-01-12T19:05:58.354Z,8.18
2023-01-12T19:08:45.881Z,8.20
2023-01-12T19:11:14.187Z,8.24
2023-01-12T19:13:59.292Z,8.20
2023-01-12T19:16:44.651Z,8.23
2023-01-12T19:19:11.589Z,8.16
2023-01-12T19:21:56.722Z,8.22
2023-01-12T19:24:41.834Z,8.16
2023-01-12T19:27:30.451Z,8.21
2023-01-12T19:29:57.285Z,8.25
2023-01-12T19:32:24.323Z,8.23
2023-01-12T19:34:56.329Z,8.28
2023-01-12T19:37:23.343Z,8.20
2023-01-12T19:40:03.865Z,8.17
2023-01-12T19:42:50.913Z,8.23
2023-01-12T19:45:17.743Z,8.31
2023-01-12T19:47:44.427Z,8.24
2023-01-12T19:50:12.527Z,8.16
2023-01-12T19:52:40.795Z,8.25
2023-01-12T19:55:10.191Z,8.24
2023-01-12T19:57:37.593Z,8.21
2023-01-12T20:00:07.468Z,8.17
2023-01-12T20:02:38.987Z,8.25
2023-01-12T20:05:05.898Z,8.23
2023-01-12T20:07:32.600Z,8.23
2023-01-12T20:09:59.993Z,8.16
2023-01-12T20:12:26.856Z,8.12
2023-01-12T20:14:53.465Z,8.26
2023-01-12T20:17:20.188Z,8.15
2023-01-12T20:19:47.301Z,8.16
2023-01-12T20:22:14.249Z,8.17
2023-01-12T20:24:40.949Z,8.13
2023-01-12T20:27:10.025Z,8.21
2023-01-12T20:29:36.700Z,8.23
2023-01-12T20:32:03.510Z,8.14
2023-01-12T20:34:31.367Z,8.28
2023-01-12T20:36:58.001Z,8.30
2023-01-12T20:39:25.722Z,8.17
2023-01-12T20:41:52.804Z,8.14
2023-01-12T20:44:20.615Z,8.23
2023-01-12T20:46:47.388Z,8.23
2023-01-12T20:49:14.199Z,8.30
2023-01-12T20:51:40.906Z,8.28
2023-01-12T20:54:07.928Z,8.10
2023-01-12T20:56:34.691Z,8.21
2023-01-12T20:59:01.692Z,8.19
2023-01-12T21:01:28.930Z,8.24
2023-01-12T21:03:55.696Z,8.30
2023-01-12T21:06:22.783Z,8.27
2023-01-12T21:08:49.491Z,8.17
2023-01-12T21:11:18.418Z,8.29
2023-01-12T21:13:45.488Z,8.21
2023-01-12T21:16:14.287Z,8.25
2023-01-12T21:18:41.464Z,8.29
2023-01-12T21:21:08.405Z,8.20
2023-01-12T21:23:35.198Z,8.17
2023-01-12T21:26:01.992Z,8.25
2023-01-12T21:28:30.297Z,8.24
2023-01-12T21:31:00.715Z,8.31
2023-01-12T21:33:27.420Z,8.25
2023-01-12T21:35:55.887Z,8.24
2023-01-12T21:38:23.540Z,8.16
2023-01-12T21:40:50.275Z,8.12
2023-01-12T21:43:18.133Z,8.15
2023-01-12T21:45:50.685Z,8.26
2023-01-12T21:48:18.968Z,8.21
2023-01-12T21:50:45.899Z,8.16
2023-01-12T21:53:18.146Z,8.27
2023-01-12T21:55:56.533Z,8.30
2023-01-12T21:58:28.695Z,8.22
2023-01-12T22:00:56.427Z,8.21
2023-01-12T22:03:24.811Z,8.15
2023-01-12T22:05:51.517Z,8.23
2023-01-12T22:08:18.578Z,8.28
2023-01-12T22:10:45.460Z,8.24
2023-01-12T22:13:16.581Z,8.25
2023-01-12T22:15:43.433Z,8.32
2023-01-12T22:18:10.152Z,8.22
2023-01-12T22:20:38.677Z,8.31
2023-01-12T22:23:05.341Z,8.40
2023-01-12T22:25:32.014Z,8.27
2023-01-12T22:27:58.642Z,8.29
2023-01-12T22:30:25.279Z,8.29
2023-01-12T22:32:54.444Z,8.35
2023-01-12T22:35:21.192Z,8.30
2023-01-12T22:37:48.003Z,8.29
2023-01-12T22:40:15.931Z,8.35
2023-01-12T22:43:01.357Z,8.38
2023-01-12T22:45:28.183Z,8.34
2023-01-12T22:47:56.058Z,8.37
2023-01-12T22:50:24.389Z,8.36
2023-01-12T22:52:52.698Z,8.36
2023-01-12T22:55:20.541Z,8.37
2023-01-12T22:57:47.180Z,8.43
2023-01-12T23:00:18.459Z,8.30
2023-01-12T23:03:00.850Z,8.41
2023-01-12T23:05:36.520Z,8.30
2023-01-12T23:08:05.126Z,8.30
2023-01-12T23:10:32.068Z,8.35
2023-01-12T23:13:17.266Z,8.36
2023-01-12T23:15:46.444Z,8.37
2023-01-12T23:18:15.801Z,8.44
2023-01-12T23:20:42.666Z,8.44
2023-01-12T23:23:10.574Z,8.38
2023-01-12T23:25:37.320Z,8.48
2023-01-12T23:28:04.852Z,8.47
2023-01-12T23:30:31.495Z,8.49
2023-01-12T23:33:00.060Z,8.42
2023-01-12T23:35:27.259Z,8.46
2023-01-12T23:37:56.270Z,8.34
2023-01-12T23:40:23.022Z,8.43
2023-01-12T23:42:49.680Z,8.60
2023-01-12T23:45:16.393Z,8.58
2023-01-12T23:47:43.055Z,8.54
2023-01-12T23:50:11.551Z,8.52
2023-01-12T23:52:38.598Z,8.44
2023-01-12T23:55:06.896Z,8.51
2023-01-12T23:57:33.770Z,8.55
